Darstellungsparameter: Aktuell verwendete Einstellungen:
Skalierung der Graphiken ... ?
xyx+y,   Skalierungsfaktor:      Skalierung: Modus: x, Faktor: 1
Darstellungszeitraum ... ?
Vom - - bis: - -   Zeitraum: 30.05.2022 - 30.05.2022
Min/Max/Avg-Anzeige ... ?
Zeige MMA aktuell
Zeige MMA Monat
Zeige MMA alles
Zeige --A aktuell
Zeige --A Monat
Zeige --A alles
Keine MMA-Anzeige
MMA:
Keine MMA-Graphiken
MMA-Basis: 30.05.2022 - 30.05.2022
Quicknavigation für Darstellung... ?
Tage:      1T, 2T, 3T, 5T -1T -2T -3T -5T +1T +2T +3T +5T
Wochen: 1W, 2W, 3W -1W -2W -3W +1W +2W +3W
Monate: 1M, 3M, 6M -1M -3M -6M +1M +3M +6M
Jahre:    1J, 3J, 5J, 10J -1J -3J -5J -10J +1J +3J +5J +10J
Nutze für die Darstellung ... ?
Originaldaten oder Mittelwerte auf ...
Stundenbasis Tagesbasis Wochenbasis
Monatsbasis Jahresbasis      Datenbasis: Original-Daten
Darstellen als:
Statistik (Auto) Statistik J:M      Darstellung:
Zur Graphik,    zurück zur Übersicht aller Sensoren.
 
Tabellarische Datenbersicht: ?
 
Sensor: Nr:Datum:Temp:Abs-Feuchte:Windchill:Wind:
Aussen-T/F 1 30-05-2022 00:00:00 7.4 C 7.32 g/m*3 7.4 C 1.6 km/h
2 30-05-2022 00:05:00 7.4 C 7.32 g/m*3 7.4 C 1.6 km/h
3 30-05-2022 00:10:00 7.5 C 7.36 g/m*3 7.5 C 0 km/h
4 30-05-2022 00:15:00 7.5 C 7.36 g/m*3 7.5 C 0 km/h
5 30-05-2022 00:20:00 7.5 C 7.36 g/m*3 7.5 C 0 km/h
6 30-05-2022 00:25:00 7.5 C 7.36 g/m*3 7.5 C 0 km/h
7 30-05-2022 00:30:00 7.5 C 7.36 g/m*3 7.5 C 0 km/h
8 30-05-2022 00:35:00 7.5 C 7.36 g/m*3 7.5 C 0 km/h
9 30-05-2022 00:40:00 7.6 C 7.41 g/m*3 7.6 C 0 km/h
10 30-05-2022 00:45:00 7.6 C 7.41 g/m*3 7.6 C 0 km/h
11 30-05-2022 00:50:00 7.6 C 7.41 g/m*3 7.6 C 0 km/h
12 30-05-2022 00:55:00 7.5 C 7.36 g/m*3 7.5 C 0 km/h
13 30-05-2022 01:00:00 7.4 C 7.32 g/m*3 7.4 C 0 km/h
14 30-05-2022 01:05:00 7.3 C 7.27 g/m*3 7.3 C 0 km/h
15 30-05-2022 01:10:00 7.2 C 7.22 g/m*3 7.2 C 0 km/h
16 30-05-2022 01:15:00 7.2 C 7.22 g/m*3 7.2 C 0 km/h
17 30-05-2022 01:20:00 7.2 C 7.22 g/m*3 7.2 C 0 km/h
18 30-05-2022 01:25:00 7.2 C 7.3 g/m*3 7.2 C 0 km/h
19 30-05-2022 01:30:00 7.2 C 7.3 g/m*3 7.2 C 0 km/h
20 30-05-2022 01:35:00 7.2 C 7.3 g/m*3 7.2 C 0 km/h
21 30-05-2022 01:40:00 7.3 C 7.35 g/m*3 7.3 C 0 km/h
22 30-05-2022 01:45:00 7.3 C 7.35 g/m*3 7.3 C 0 km/h
23 30-05-2022 01:50:00 7.3 C 7.35 g/m*3 7.3 C 0 km/h
24 30-05-2022 01:55:00 7.2 C 7.3 g/m*3 7.2 C 0 km/h
25 30-05-2022 02:00:00 7.2 C 7.3 g/m*3 7.2 C 0 km/h
Sensor: Nr:Datum:Temp:Abs-Feuchte:Windchill:Wind:
Aussen-T/F 26 30-05-2022 02:05:00 7.1 C 7.25 g/m*3 7.1 C 0 km/h
27 30-05-2022 02:10:00 7.1 C 7.25 g/m*3 7.1 C 0 km/h
28 30-05-2022 02:15:00 7 C 7.21 g/m*3 7 C 0 km/h
29 30-05-2022 02:20:00 7.1 C 7.25 g/m*3 7.1 C 3.2 km/h
30 30-05-2022 02:25:00 7.2 C 7.3 g/m*3 7.2 C 1.6 km/h
31 30-05-2022 02:30:00 7.2 C 7.38 g/m*3 7.2 C 4.8 km/h
32 30-05-2022 02:35:00 7.3 C 7.43 g/m*3 7.3 C 4.8 km/h
33 30-05-2022 02:40:00 7.4 C 7.48 g/m*3 7.4 C 1.6 km/h
34 30-05-2022 02:45:00 7.6 C 7.57 g/m*3 7.6 C 1.6 km/h
35 30-05-2022 02:50:00 7.6 C 7.57 g/m*3 7.6 C 0 km/h
36 30-05-2022 02:55:00 7.7 C 7.62 g/m*3 7.7 C 0 km/h
37 30-05-2022 03:00:00 7.7 C 7.62 g/m*3 7.7 C 0 km/h
38 30-05-2022 03:05:00 7.7 C 7.62 g/m*3 7.7 C 0 km/h
39 30-05-2022 03:10:00 7.8 C 7.67 g/m*3 7.8 C 0 km/h
40 30-05-2022 03:15:00 7.8 C 7.67 g/m*3 7.8 C 1.6 km/h
41 30-05-2022 03:20:00 7.8 C 7.67 g/m*3 7.8 C 1.6 km/h
42 30-05-2022 03:25:00 7.9 C 7.72 g/m*3 7.9 C 1.6 km/h
43 30-05-2022 03:30:00 7.9 C 7.72 g/m*3 7.9 C 1.6 km/h
44 30-05-2022 03:35:00 7.9 C 7.72 g/m*3 7.9 C 1.6 km/h
45 30-05-2022 03:40:00 8 C 7.77 g/m*3 8 C 1.6 km/h
46 30-05-2022 03:45:00 8 C 7.77 g/m*3 8 C 3.2 km/h
47 30-05-2022 03:50:00 8 C 7.77 g/m*3 8 C 1.6 km/h
48 30-05-2022 03:55:00 8.1 C 7.74 g/m*3 8.1 C 1.6 km/h
49 30-05-2022 04:00:00 8.1 C 7.74 g/m*3 8.1 C 0 km/h
50 30-05-2022 04:05:00 8.1 C 7.74 g/m*3 8.1 C 0 km/h
Sensor: Nr:Datum:Temp:Abs-Feuchte:Windchill:Wind:
Aussen-T/F 51 30-05-2022 04:10:00 8.1 C 7.74 g/m*3 8.1 C 0 km/h
52 30-05-2022 04:15:00 8.2 C 7.79 g/m*3 8.2 C 0 km/h
53 30-05-2022 04:20:00 8.2 C 7.79 g/m*3 8.2 C 0 km/h
54 30-05-2022 04:25:00 8.2 C 7.79 g/m*3 8.2 C 0 km/h
55 30-05-2022 04:30:00 8.2 C 7.79 g/m*3 8.2 C 0 km/h
56 30-05-2022 04:35:00 8.2 C 7.79 g/m*3 8.2 C 0 km/h
57 30-05-2022 04:40:00 8.3 C 7.84 g/m*3 8.3 C 1.6 km/h
58 30-05-2022 04:45:00 8.3 C 7.84 g/m*3 8.3 C 0 km/h
59 30-05-2022 04:50:00 8.3 C 7.84 g/m*3 8.3 C 1.6 km/h
60 30-05-2022 04:55:00 8.3 C 7.84 g/m*3 8.3 C 0 km/h
61 30-05-2022 05:00:00 8.3 C 7.84 g/m*3 8.3 C 0 km/h
62 30-05-2022 05:05:00 8.3 C 7.84 g/m*3 8.3 C 0 km/h
63 30-05-2022 05:10:00 8.3 C 7.84 g/m*3 8.3 C 0 km/h
64 30-05-2022 05:15:00 8.3 C 7.84 g/m*3 8.3 C 0 km/h
65 30-05-2022 05:20:00 8.3 C 7.84 g/m*3 8.3 C 0 km/h
66 30-05-2022 05:25:00 8.3 C 7.84 g/m*3 8.3 C 0 km/h
67 30-05-2022 05:30:00 8.3 C 7.84 g/m*3 8.3 C 1.6 km/h
68 30-05-2022 05:35:00 8.3 C 7.84 g/m*3 8.3 C 0 km/h
69 30-05-2022 05:40:00 8.3 C 7.84 g/m*3 8.3 C 0 km/h
70 30-05-2022 05:45:00 8.3 C 7.84 g/m*3 8.3 C 0 km/h
71 30-05-2022 05:50:00 8.3 C 7.84 g/m*3 8.3 C 0 km/h
72 30-05-2022 05:55:00 8.2 C 7.79 g/m*3 8.2 C 0 km/h
73 30-05-2022 06:00:00 8.3 C 7.84 g/m*3 8.3 C 0 km/h
74 30-05-2022 06:05:00 8.3 C 7.84 g/m*3 8.3 C 0 km/h
75 30-05-2022 06:10:00 8.3 C 7.84 g/m*3 8.3 C 3.2 km/h
Sensor: Nr:Datum:Temp:Abs-Feuchte:Windchill:Wind:
Aussen-T/F 76 30-05-2022 06:15:00 8.3 C 7.84 g/m*3 8.3 C 0 km/h
77 30-05-2022 06:20:00 8.4 C 7.89 g/m*3 8.4 C 1.6 km/h
78 30-05-2022 06:25:00 8.4 C 7.89 g/m*3 8.4 C 3.2 km/h
79 30-05-2022 06:30:00 8.4 C 7.89 g/m*3 8.4 C 0 km/h
80 30-05-2022 06:35:00 8.5 C 7.94 g/m*3 8.5 C 1.6 km/h
81 30-05-2022 06:40:00 8.5 C 7.94 g/m*3 8.5 C 1.6 km/h
82 30-05-2022 06:45:00 8.6 C 7.99 g/m*3 8.6 C 4.8 km/h
83 30-05-2022 06:50:00 8.6 C 7.91 g/m*3 8.6 C 0 km/h
84 30-05-2022 06:55:00 8.7 C 7.96 g/m*3 8.7 C 1.6 km/h
85 30-05-2022 07:00:00 8.7 C 7.96 g/m*3 8.7 C 1.6 km/h
86 30-05-2022 07:05:00 8.8 C 8.01 g/m*3 8.8 C 4.8 km/h
87 30-05-2022 07:10:00 8.9 C 8.06 g/m*3 8.9 C 1.6 km/h
88 30-05-2022 07:15:00 9 C 8.11 g/m*3 9 C 0 km/h
89 30-05-2022 07:20:00 9.2 C 8.22 g/m*3 9.2 C 4.8 km/h
90 30-05-2022 07:25:00 9.3 C 8.27 g/m*3 9.3 C 3.2 km/h
91 30-05-2022 07:30:00 9.3 C 8.18 g/m*3 9.3 C 1.6 km/h
92 30-05-2022 07:35:00 9.5 C 8.28 g/m*3 9.5 C 1.6 km/h
93 30-05-2022 07:40:00 9.6 C 8.34 g/m*3 9.6 C 1.6 km/h
94 30-05-2022 07:45:00 9.6 C 8.34 g/m*3 9.6 C 1.6 km/h
95 30-05-2022 07:50:00 9.7 C 8.3 g/m*3 9.7 C 3.2 km/h
96 30-05-2022 07:55:00 9.8 C 8.35 g/m*3 9.8 C 3.2 km/h
97 30-05-2022 08:00:00 9.9 C 8.4 g/m*3 9.9 C 1.6 km/h
98 30-05-2022 08:05:00 10.1 C 8.51 g/m*3 10.1 C 4.8 km/h
99 30-05-2022 08:10:00 10.2 C 8.56 g/m*3 10.2 C 3.2 km/h
100 30-05-2022 08:15:00 10.2 C 8.47 g/m*3 10.2 C 1.6 km/h
Sensor: Nr:Datum:Temp:Abs-Feuchte:Windchill:Wind:
Aussen-T/F 101 30-05-2022 08:20:00 10.3 C 8.52 g/m*3 10.3 C 1.6 km/h
102 30-05-2022 08:25:00 10.6 C 8.69 g/m*3 10.6 C 1.6 km/h
103 30-05-2022 08:30:00 10.7 C 8.74 g/m*3 10.7 C 0 km/h
104 30-05-2022 08:35:00 10.9 C 8.85 g/m*3 10.9 C 0 km/h
105 30-05-2022 08:40:00 11.1 C 8.86 g/m*3 11.1 C 3.2 km/h
106 30-05-2022 08:45:00 11.1 C 8.66 g/m*3 11.1 C 0 km/h
107 30-05-2022 08:50:00 11.2 C 8.72 g/m*3 11.2 C 4.8 km/h
108 30-05-2022 08:55:00 11.2 C 8.72 g/m*3 11.2 C 1.6 km/h
109 30-05-2022 09:00:00 11.3 C 8.67 g/m*3 11.3 C 4.8 km/h
110 30-05-2022 09:05:00 11.3 C 8.57 g/m*3 11.3 C 3.2 km/h
111 30-05-2022 09:10:00 11.4 C 8.72 g/m*3 11.4 C 4.8 km/h
112 30-05-2022 09:15:00 11.4 C 8.62 g/m*3 11.4 C 4.8 km/h
113 30-05-2022 09:20:00 11.6 C 8.73 g/m*3 11.6 C 1.6 km/h
114 30-05-2022 09:25:00 11.7 C 8.68 g/m*3 11.7 C 6.4 km/h
115 30-05-2022 09:30:00 11.7 C 8.68 g/m*3 11.7 C 6.4 km/h
116 30-05-2022 09:35:00 11.8 C 8.53 g/m*3 11.8 C 6.4 km/h
117 30-05-2022 09:40:00 11.8 C 8.42 g/m*3 11.8 C 4.8 km/h
118 30-05-2022 09:45:00 11.9 C 8.47 g/m*3 11.9 C 6.4 km/h
119 30-05-2022 09:50:00 11.9 C 8.37 g/m*3 11.9 C 3.2 km/h
120 30-05-2022 09:55:00 12 C 8.42 g/m*3 12 C 3.2 km/h
121 30-05-2022 10:00:00 12.1 C 8.47 g/m*3 12.1 C 4.8 km/h
122 30-05-2022 10:05:00 12.4 C 8.63 g/m*3 12.4 C 8.1 km/h
123 30-05-2022 10:10:00 12.7 C 8.46 g/m*3 12.7 C 6.4 km/h
124 30-05-2022 10:15:00 13.1 C 8.67 g/m*3 13.1 C 8.1 km/h
125 30-05-2022 10:20:00 13.1 C 8.44 g/m*3 13.1 C 4.8 km/h
Sensor: Nr:Datum:Temp:Abs-Feuchte:Windchill:Wind:
Aussen-T/F 126 30-05-2022 10:25:00 12.9 C 8.34 g/m*3 12.9 C 1.6 km/h
127 30-05-2022 10:30:00 12.8 C 8.06 g/m*3 12.8 C 0 km/h
128 30-05-2022 10:35:00 12.8 C 7.95 g/m*3 12.8 C 0 km/h
129 30-05-2022 10:40:00 13 C 8.17 g/m*3 13 C 0 km/h
130 30-05-2022 10:45:00 13.2 C 8.27 g/m*3 13.2 C 8.1 km/h
131 30-05-2022 10:50:00 13.3 C 8.2 g/m*3 13.3 C 8.1 km/h
132 30-05-2022 10:55:00 13.2 C 7.35 g/m*3 13.2 C 8.1 km/h
133 30-05-2022 11:00:00 13.2 C 7.12 g/m*3 13.2 C 6.4 km/h
134 30-05-2022 11:05:00 13.3 C 7.28 g/m*3 13.3 C 6.4 km/h
135 30-05-2022 11:10:00 13.5 C 7.37 g/m*3 13.5 C 3.2 km/h
136 30-05-2022 11:15:00 13.8 C 7.27 g/m*3 13.8 C 14.5 km/h
137 30-05-2022 11:20:00 14.1 C 7.04 g/m*3 14.1 C 14.5 km/h
138 30-05-2022 11:25:00 14.1 C 6.92 g/m*3 14.1 C 4.8 km/h
139 30-05-2022 11:30:00 14 C 6.75 g/m*3 14 C 8.1 km/h
140 30-05-2022 11:35:00 13.9 C 6.83 g/m*3 13.9 C 3.2 km/h
141 30-05-2022 11:40:00 13.9 C 6.59 g/m*3 13.9 C 6.4 km/h
142 30-05-2022 11:45:00 14.2 C 6.84 g/m*3 14.2 C 4.8 km/h
143 30-05-2022 11:50:00 14.7 C 7.18 g/m*3 14.7 C 4.8 km/h
144 30-05-2022 11:55:00 15.4 C 7.23 g/m*3 15.4 C 9.7 km/h
145 30-05-2022 12:00:00 15.7 C 6.96 g/m*3 15.7 C 9.7 km/h
146 30-05-2022 12:05:00 15.8 C 7.13 g/m*3 15.8 C 8.1 km/h
147 30-05-2022 12:10:00 15.7 C 6.96 g/m*3 15.7 C 4.8 km/h
148 30-05-2022 12:15:00 15.5 C 7.01 g/m*3 15.5 C 11.3 km/h
149 30-05-2022 12:20:00 15.3 C 6.79 g/m*3 15.3 C 9.7 km/h
150 30-05-2022 12:25:00 15.1 C 6.71 g/m*3 15.1 C 11.3 km/h
Sensor: Nr:Datum:Temp:Abs-Feuchte:Windchill:Wind:
Aussen-T/F 151 30-05-2022 12:30:00 14.8 C 6.46 g/m*3 14.8 C 12.9 km/h
152 30-05-2022 12:35:00 14.9 C 6.88 g/m*3 14.9 C 6.4 km/h
153 30-05-2022 12:40:00 15.2 C 7.01 g/m*3 15.2 C 12.9 km/h
154 30-05-2022 12:45:00 15.4 C 6.83 g/m*3 15.4 C 12.9 km/h
155 30-05-2022 12:50:00 15.6 C 6.92 g/m*3 15.6 C 9.7 km/h
156 30-05-2022 12:55:00 15.7 C 7.36 g/m*3 15.7 C 8.1 km/h
157 30-05-2022 13:00:00 16.1 C 7.68 g/m*3 16.1 C 14.5 km/h
158 30-05-2022 13:05:00 16.2 C 7.58 g/m*3 16.2 C 16.1 km/h
159 30-05-2022 13:10:00 16.2 C 7.58 g/m*3 16.2 C 14.5 km/h
160 30-05-2022 13:15:00 16.2 C 7.45 g/m*3 16.2 C 11.3 km/h
161 30-05-2022 13:20:00 16.3 C 7.21 g/m*3 16.3 C 16.1 km/h
162 30-05-2022 13:25:00 16.4 C 7.12 g/m*3 16.4 C 9.7 km/h
163 30-05-2022 13:30:00 16.4 C 7.12 g/m*3 16.4 C 9.7 km/h
164 30-05-2022 13:35:00 16.4 C 6.7 g/m*3 16.4 C 11.3 km/h
165 30-05-2022 13:40:00 16.3 C 6.94 g/m*3 16.3 C 4.8 km/h
166 30-05-2022 13:45:00 16.7 C 7.25 g/m*3 16.7 C 9.7 km/h
167 30-05-2022 13:50:00 17.2 C 7.61 g/m*3 17.2 C 9.7 km/h
168 30-05-2022 13:55:00 17.7 C 7.09 g/m*3 17.7 C 16.1 km/h
169 30-05-2022 14:00:00 17.5 C 7.01 g/m*3 17.5 C 16.1 km/h
170 30-05-2022 14:05:00 17.1 C 7.13 g/m*3 17.1 C 14.5 km/h
171 30-05-2022 14:10:00 17.1 C 7.28 g/m*3 17.1 C 11.3 km/h
172 30-05-2022 14:15:00 17.3 C 7.22 g/m*3 17.3 C 9.7 km/h
173 30-05-2022 14:20:00 17.4 C 7.41 g/m*3 17.4 C 12.9 km/h
174 30-05-2022 14:25:00 17.3 C 7.07 g/m*3 17.3 C 16.1 km/h
175 30-05-2022 14:30:00 16.8 C 6.86 g/m*3 16.8 C 14.5 km/h
Sensor: Nr:Datum:Temp:Abs-Feuchte:Windchill:Wind:
Aussen-T/F 176 30-05-2022 14:35:00 16.6 C 6.78 g/m*3 16.6 C 16.1 km/h
177 30-05-2022 14:40:00 16.7 C 6.96 g/m*3 16.7 C 11.3 km/h
178 30-05-2022 14:45:00 16.8 C 6.86 g/m*3 16.8 C 8.1 km/h
179 30-05-2022 14:50:00 17.1 C 7.28 g/m*3 17.1 C 8.1 km/h
180 30-05-2022 14:55:00 17.4 C 7.11 g/m*3 17.4 C 8.1 km/h
181 30-05-2022 15:00:00 17.5 C 7.16 g/m*3 17.5 C 9.7 km/h
182 30-05-2022 15:05:00 17.3 C 6.92 g/m*3 17.3 C 11.3 km/h
183 30-05-2022 15:10:00 16.8 C 6.72 g/m*3 16.8 C 12.9 km/h
184 30-05-2022 15:15:00 16.7 C 6.96 g/m*3 16.7 C 14.5 km/h
185 30-05-2022 15:20:00 16.9 C 7.48 g/m*3 16.9 C 8.1 km/h
186 30-05-2022 15:25:00 17.4 C 7.11 g/m*3 17.4 C 12.9 km/h
187 30-05-2022 15:30:00 17.2 C 6.88 g/m*3 17.2 C 11.3 km/h
188 30-05-2022 15:35:00 16.9 C 7.05 g/m*3 16.9 C 4.8 km/h
189 30-05-2022 15:40:00 17.3 C 7.07 g/m*3 17.3 C 6.4 km/h
190 30-05-2022 15:45:00 17.3 C 7.07 g/m*3 17.3 C 6.4 km/h
191 30-05-2022 15:50:00 17.3 C 6.92 g/m*3 17.3 C 4.8 km/h
192 30-05-2022 15:55:00 17.2 C 7.18 g/m*3 17.2 C 16.1 km/h
193 30-05-2022 16:00:00 16.9 C 7.05 g/m*3 16.9 C 6.4 km/h
194 30-05-2022 16:05:00 16.8 C 6.86 g/m*3 16.8 C 8.1 km/h
195 30-05-2022 16:10:00 17.3 C 7.22 g/m*3 17.3 C 11.3 km/h
196 30-05-2022 16:15:00 17.9 C 7.18 g/m*3 17.9 C 11.3 km/h
197 30-05-2022 16:20:00 18.4 C 7.08 g/m*3 18.4 C 4.8 km/h
198 30-05-2022 16:25:00 18.6 C 7.32 g/m*3 18.6 C 8.1 km/h
199 30-05-2022 16:30:00 18.7 C 7.04 g/m*3 18.7 C 12.9 km/h
200 30-05-2022 16:35:00 18.4 C 6.76 g/m*3 18.4 C 3.2 km/h
Sensor: Nr:Datum:Temp:Abs-Feuchte:Windchill:Wind:
Aussen-T/F 201 30-05-2022 16:40:00 18.4 C 7.24 g/m*3 18.4 C 11.3 km/h
202 30-05-2022 16:45:00 18.5 C 6.8 g/m*3 18.5 C 12.9 km/h
203 30-05-2022 16:50:00 18.6 C 7 g/m*3 18.6 C 6.4 km/h
204 30-05-2022 16:55:00 18.7 C 6.88 g/m*3 18.7 C 4.8 km/h
205 30-05-2022 17:00:00 18.8 C 7.41 g/m*3 18.8 C 8.1 km/h
206 30-05-2022 17:05:00 18.6 C 7 g/m*3 18.6 C 9.7 km/h
207 30-05-2022 17:10:00 18.3 C 7.04 g/m*3 18.3 C 8.1 km/h
208 30-05-2022 17:15:00 18.1 C 7.11 g/m*3 18.1 C 4.8 km/h
209 30-05-2022 17:20:00 17.9 C 6.87 g/m*3 17.9 C 17.7 km/h
210 30-05-2022 17:25:00 17.7 C 6.94 g/m*3 17.7 C 9.7 km/h
211 30-05-2022 17:30:00 17.6 C 6.75 g/m*3 17.6 C 9.7 km/h
212 30-05-2022 17:35:00 17.4 C 6.52 g/m*3 17.4 C 14.5 km/h
213 30-05-2022 17:40:00 17.7 C 6.94 g/m*3 17.7 C 11.3 km/h
214 30-05-2022 17:45:00 17.7 C 6.64 g/m*3 17.7 C 9.7 km/h
215 30-05-2022 17:50:00 17.6 C 6.9 g/m*3 17.6 C 11.3 km/h
216 30-05-2022 17:55:00 17.4 C 6.67 g/m*3 17.4 C 12.9 km/h
217 30-05-2022 18:00:00 17.7 C 6.64 g/m*3 17.7 C 8.1 km/h
218 30-05-2022 18:05:00 17.8 C 6.68 g/m*3 17.8 C 6.4 km/h
219 30-05-2022 18:10:00 17.8 C 6.68 g/m*3 17.8 C 4.8 km/h
220 30-05-2022 18:15:00 17.7 C 6.94 g/m*3 17.7 C 9.7 km/h
221 30-05-2022 18:20:00 17.6 C 6.75 g/m*3 17.6 C 8.1 km/h
222 30-05-2022 18:25:00 17.7 C 6.79 g/m*3 17.7 C 12.9 km/h
223 30-05-2022 18:30:00 17.8 C 6.83 g/m*3 17.8 C 12.9 km/h
224 30-05-2022 18:35:00 17.9 C 6.72 g/m*3 17.9 C 8.1 km/h
225 30-05-2022 18:40:00 17.8 C 6.53 g/m*3 17.8 C 8.1 km/h
Sensor: Nr:Datum:Temp:Abs-Feuchte:Windchill:Wind:
Aussen-T/F 226 30-05-2022 18:45:00 17.6 C 6.6 g/m*3 17.6 C 8.1 km/h
227 30-05-2022 18:50:00 17.4 C 6.67 g/m*3 17.4 C 8.1 km/h
228 30-05-2022 18:55:00 17.3 C 6.92 g/m*3 17.3 C 6.4 km/h
229 30-05-2022 19:00:00 17.4 C 6.82 g/m*3 17.4 C 6.4 km/h
230 30-05-2022 19:05:00 17.5 C 6.86 g/m*3 17.5 C 3.2 km/h
231 30-05-2022 19:10:00 17.6 C 6.75 g/m*3 17.6 C 4.8 km/h
232 30-05-2022 19:15:00 17.5 C 6.86 g/m*3 17.5 C 11.3 km/h
233 30-05-2022 19:20:00 17.4 C 6.82 g/m*3 17.4 C 11.3 km/h
234 30-05-2022 19:25:00 17.3 C 7.07 g/m*3 17.3 C 8.1 km/h
235 30-05-2022 19:30:00 17.1 C 6.7 g/m*3 17.1 C 11.3 km/h
236 30-05-2022 19:35:00 16.8 C 6.72 g/m*3 16.8 C 8.1 km/h
237 30-05-2022 19:40:00 16.7 C 6.82 g/m*3 16.7 C 8.1 km/h
238 30-05-2022 19:45:00 16.5 C 6.74 g/m*3 16.5 C 8.1 km/h
239 30-05-2022 19:50:00 16.4 C 6.84 g/m*3 16.4 C 9.7 km/h
240 30-05-2022 19:55:00 16.3 C 6.94 g/m*3 16.3 C 8.1 km/h
241 30-05-2022 20:00:00 16.3 C 6.94 g/m*3 16.3 C 6.4 km/h
242 30-05-2022 20:05:00 16.3 C 7.08 g/m*3 16.3 C 8.1 km/h
243 30-05-2022 20:10:00 16.2 C 7.03 g/m*3 16.2 C 4.8 km/h
244 30-05-2022 20:15:00 16.1 C 7.13 g/m*3 16.1 C 6.4 km/h
245 30-05-2022 20:20:00 15.9 C 7.18 g/m*3 15.9 C 6.4 km/h
246 30-05-2022 20:25:00 15.8 C 7.13 g/m*3 15.8 C 4.8 km/h
247 30-05-2022 20:30:00 15.7 C 7.76 g/m*3 15.7 C 1.6 km/h
248 30-05-2022 20:35:00 15.7 C 8.03 g/m*3 15.7 C 1.6 km/h
249 30-05-2022 20:40:00 15.4 C 8.15 g/m*3 15.4 C 0 km/h
250 30-05-2022 20:45:00 15.3 C 8.23 g/m*3 15.3 C 0 km/h
Sensor: Nr:Datum:Temp:Abs-Feuchte:Windchill:Wind:
Aussen-T/F 251 30-05-2022 20:50:00 15 C 8.08 g/m*3 15 C 0 km/h
252 30-05-2022 20:55:00 14.7 C 7.93 g/m*3 14.7 C 0 km/h
253 30-05-2022 21:00:00 14.3 C 7.62 g/m*3 14.3 C 0 km/h
254 30-05-2022 21:05:00 14.1 C 7.65 g/m*3 14.1 C 0 km/h
255 30-05-2022 21:10:00 13.8 C 7.63 g/m*3 13.8 C 1.6 km/h
256 30-05-2022 21:15:00 13.4 C 7.44 g/m*3 13.4 C 0 km/h
257 30-05-2022 21:20:00 13.3 C 7.39 g/m*3 13.3 C 1.6 km/h
258 30-05-2022 21:25:00 13.1 C 7.42 g/m*3 13.1 C 0 km/h
259 30-05-2022 21:30:00 13 C 7.37 g/m*3 13 C 0 km/h
260 30-05-2022 21:35:00 12.9 C 7.33 g/m*3 12.9 C 0 km/h
261 30-05-2022 21:40:00 12.8 C 7.39 g/m*3 12.8 C 1.6 km/h
262 30-05-2022 21:45:00 12.7 C 7.46 g/m*3 12.7 C 0 km/h
263 30-05-2022 21:50:00 12.5 C 7.37 g/m*3 12.5 C 0 km/h
264 30-05-2022 21:55:00 12.4 C 7.32 g/m*3 12.4 C 0 km/h
265 30-05-2022 22:00:00 12.2 C 7.34 g/m*3 12.2 C 0 km/h
266 30-05-2022 22:05:00 12.1 C 7.4 g/m*3 12.1 C 0 km/h
267 30-05-2022 22:10:00 11.9 C 7.41 g/m*3 11.9 C 0 km/h
268 30-05-2022 22:15:00 11.7 C 7.32 g/m*3 11.7 C 0 km/h
269 30-05-2022 22:20:00 11.5 C 7.33 g/m*3 11.5 C 0 km/h
270 30-05-2022 22:25:00 11.2 C 7.1 g/m*3 11.2 C 0 km/h
271 30-05-2022 22:30:00 10.9 C 7.06 g/m*3 10.9 C 0 km/h
272 30-05-2022 22:35:00 10.7 C 7.07 g/m*3 10.7 C 0 km/h
273 30-05-2022 22:40:00 10.4 C 6.94 g/m*3 10.4 C 0 km/h
274 30-05-2022 22:45:00 10.2 C 6.95 g/m*3 10.2 C 0 km/h
275 30-05-2022 22:50:00 10 C 6.95 g/m*3 10 C 0 km/h
Sensor: Nr:Datum:Temp:Abs-Feuchte:Windchill:Wind:
Aussen-T/F 276 30-05-2022 22:55:00 9.8 C 6.96 g/m*3 9.8 C 0 km/h
277 30-05-2022 23:00:00 9.7 C 6.91 g/m*3 9.7 C 0 km/h
278 30-05-2022 23:05:00 9.6 C 6.87 g/m*3 9.6 C 0 km/h
279 30-05-2022 23:10:00 9.4 C 6.78 g/m*3 9.4 C 0 km/h
280 30-05-2022 23:15:00 9.2 C 6.79 g/m*3 9.2 C 0 km/h
281 30-05-2022 23:20:00 9.1 C 6.74 g/m*3 9.1 C 0 km/h
282 30-05-2022 23:25:00 9 C 6.79 g/m*3 9 C 0 km/h
283 30-05-2022 23:30:00 8.9 C 6.83 g/m*3 8.9 C 0 km/h
284 30-05-2022 23:35:00 8.9 C 6.83 g/m*3 8.9 C 0 km/h
285 30-05-2022 23:40:00 8.8 C 6.79 g/m*3 8.8 C 0 km/h
286 30-05-2022 23:45:00 8.7 C 6.83 g/m*3 8.7 C 0 km/h
287 30-05-2022 23:50:00 8.6 C 6.87 g/m*3 8.6 C 0 km/h
288 30-05-2022 23:55:00 8.6 C 6.87 g/m*3 8.6 C 0 km/h

Legende:
   Min
   Max


Maximal/Minimal-Werte vom 30.05.2022 - 30.05.2022

Sensor Min Max Avg
Temp
(Aussen-T/F)
7 °C
30-05-2022  02:15:00
18.8 °C
30-05-2022  17:00:00
12.47 °C
Abs-Feuchte
(Aussen-T/F)
6.46 g/m*3
30-05-2022  12:30:00
8.86 g/m*3
30-05-2022  08:40:00
7.42 g/m*3
Windchill
(Aussen-T/F)
7 C
30-05-2022  02:15:00
18.8 C
30-05-2022  17:00:00
12.42 C

Die Daten stammen von einer Davis Vantage Pro 2 Wetter-Station und werden unter Linux mit der Software wview2wettercgi und aufbereitet. Alle Angaben erfolgen ohne Gewähr für ihre Vollständigkeit oder Richtigkeit.
Kontakt: Rainer Krienke krienke@uni-koblenz.de . Meine Webseiten an der Uni Koblenz oder privat.
Version: $Revision: 0.78 $